Time;durP1;ratioP1;P1;durP2;ratioP2;P2;SDS_P1;SDS_P2;PMS_P1;PMS_P2;Temp;Humidity;BMP_temperature;BMP_pressure;BME280_temperature;BME280_humidity;BME280_pressure;Samples;Min_cycle;Max_cycle;Signal;HPM_P1;HPM_P2
2023/05/29 00:01:52;;;;;;;7.90;5.40;;;;;;;10.73;92.19;100526.05;181449;1260;42832;-57
2023/05/29 00:05:54;;;;;;;7.70;4.40;;;;;;;10.62;91.93;100530.64;181431;1260;58210;-56
2023/05/29 00:09:58;;;;;;;8.40;5.00;;;;;;;10.52;91.24;100530.90;181455;1260;43498;-56
2023/05/29 00:14:26;;;;;;;8.50;5.50;;;;;;;10.47;91.35;100525.06;181459;1260;42983;-56
2023/05/29 00:18:29;;;;;;;7.50;6.10;;;;;;;10.46;91.75;100523.18;181434;1260;43133;-56
2023/05/29 00:22:37;;;;;;;7.50;5.20;;;;;;;10.44;91.40;100517.14;181476;1260;43749;-56
2023/05/29 00:26:40;;;;;;;13.20;6.80;;;;;;;10.41;91.36;100514.83;181406;1260;58221;-56
2023/05/29 00:30:43;;;;;;;10.80;5.70;;;;;;;10.37;90.95;100514.59;181427;1260;43163;-56
2023/05/29 00:34:50;;;;;;;7.90;4.90;;;;;;;10.33;91.03;100513.31;181383;1260;43830;-56
2023/05/29 00:38:52;;;;;;;;;;;;;;;10.26;90.87;100516.02;181498;1260;43053;-56
2023/05/29 00:42:55;;;;;;;10.40;6.70;;;;;;;10.16;90.80;100508.90;181455;1260;43062;-56
2023/05/29 00:46:58;;;;;;;8.20;5.80;;;;;;;10.02;91.66;100510.33;181488;1260;57211;-56
2023/05/29 00:51:27;;;;;;;8.70;5.50;;;;;;;9.83;90.22;100508.73;181430;1260;43104;-56
2023/05/29 00:55:31;;;;;;;6.50;4.20;;;;;;;9.54;92.28;100508.08;181413;1260;43090;-56
2023/05/29 00:59:34;;;;;;;6.60;5.30;;;;;;;9.40;92.28;100507.10;181138;1264;43714;-56
2023/05/29 01:03:42;;;;;;;11.90;6.10;;;;;;;9.36;92.29;100509.23;181146;1266;43455;-56
2023/05/29 01:07:45;;;;;;;15.20;7.10;;;;;;;9.27;92.74;100508.63;181141;1265;59293;-56
2023/05/29 01:12:03;;;;;;;14.10;6.90;;;;;;;9.28;94.02;100506.60;181127;1265;43745;-56
2023/05/29 01:16:35;;;;;;;17.20;6.90;;;;;;;9.30;94.69;100502.69;180883;1269;43081;-56
2023/05/29 01:21:16;;;;;;;10.40;6.80;;;;;;;9.40;96.28;100493.86;180888;1269;43670;-56
2023/05/29 01:25:27;;;;;;;10.70;8.10;;;;;;;9.46;95.66;100491.70;180689;1269;43677;-56
2023/05/29 01:29:34;;;;;;;9.00;6.10;;;;;;;9.48;94.85;100488.49;180241;1272;57988;-56
2023/05/29 01:33:40;;;;;;;;;;;;;;;9.52;93.44;100490.48;179404;1278;42988;-56
2023/05/29 01:37:43;;;;;;;10.00;5.70;;;;;;;9.50;92.79;100488.55;177809;1290;42816;-56
2023/05/29 01:41:47;;;;;;;17.80;5.90;;;;;;;9.46;92.87;100491.66;176980;1294;43154;-56
2023/05/29 01:45:50;;;;;;;7.60;5.40;;;;;;;9.38;92.76;100494.91;177023;1294;43763;-56
2023/05/29 01:49:54;;;;;;;9.20;6.00;;;;;;;9.35;93.38;100498.83;176792;1294;57133;-57
2023/05/29 01:53:59;;;;;;;8.00;5.40;;;;;;;9.31;93.43;100501.10;173412;1317;43125;-56
2023/05/29 02:00:23;;;;;;;17.30;6.10;;;;;;;9.27;93.25;100501.85;175263;1295;568459;-55
2023/05/29 02:04:26;;;;;;;6.30;4.90;;;;;;;9.06;92.40;100497.21;179477;1268;58717;-56
2023/05/29 02:08:30;;;;;;;8.30;4.40;;;;;;;9.03;92.35;100492.12;179436;1269;44652;-56
2023/05/29 02:12:33;;;;;;;9.30;4.50;;;;;;;8.98;92.30;100495.27;177081;1266;3320913;-55
2023/05/29 02:16:36;;;;;;;9.10;6.40;;;;;;;8.93;92.73;100495.25;179774;1266;45926;-56
2023/05/29 02:20:39;;;;;;;8.90;5.70;;;;;;;8.95;92.96;100495.46;179849;1266;44989;-55
2023/05/29 02:24:42;;;;;;;8.40;6.00;;;;;;;8.96;92.92;100494.16;179609;1266;58484;-55
2023/05/29 02:29:39;;;;;;;8.00;5.40;;;;;;;8.93;92.88;100495.46;179688;1266;44878;-55
2023/05/29 02:33:41;;;;;;;8.20;5.40;;;;;;;8.85;92.57;100497.09;179652;1266;45947;-55
2023/05/29 02:37:50;;;;;;;7.60;5.70;;;;;;;8.84;93.38;100499.66;179754;1266;43762;-56
2023/05/29 02:41:54;;;;;;;9.70;4.80;;;;;;;8.81;94.42;100501.27;179712;1266;44954;-57
2023/05/29 02:46:01;;;;;;;11.30;4.70;;;;;;;8.78;95.32;100498.85;179536;1268;57938;-56
2023/05/29 02:50:56;;;;;;;8.90;4.60;;;;;;;8.73;96.83;100500.92;179641;1269;43974;-56
2023/05/29 02:54:59;;;;;;;10.40;5.50;;;;;;;8.60;98.46;100505.73;179929;1268;45222;-56
2023/05/29 02:59:02;;;;;;;25.60;7.40;;;;;;;8.55;96.75;100506.82;179567;1268;45906;-56
2023/05/29 03:03:05;;;;;;;8.50;4.50;;;;;;;8.51;96.62;100506.04;179429;1268;43528;-56
2023/05/29 03:07:09;;;;;;;15.50;5.70;;;;;;;8.50;97.69;100511.55;179673;1268;58443;-57
2023/05/29 03:12:12;;;;;;;13.10;5.80;;;;;;;8.45;97.27;100513.82;179373;1268;44839;-56
2023/05/29 03:16:18;;;;;;;11.80;4.70;;;;;;;8.55;97.37;100513.02;179398;1268;45921;-56
2023/05/29 03:20:24;;;;;;;22.40;5.90;;;;;;;8.67;97.16;100514.08;179484;1268;43700;-56
2023/05/29 03:24:27;;;;;;;17.10;7.60;;;;;;;8.77;96.85;100513.54;179706;1269;44476;-56
2023/05/29 03:28:40;;;;;;;18.20;6.50;;;;;;;8.90;98.75;100522.42;179941;1269;58480;-55
2023/05/29 03:32:42;;;;;;;8.00;5.10;;;;;;;8.99;100.00;100523.15;179669;1269;46016;-54
2023/05/29 03:36:46;;;;;;;9.20;6.30;;;;;;;9.10;100.00;100522.52;179258;1270;43634;-55
2023/05/29 03:41:40;;;;;;;28.90;7.40;;;;;;;9.20;100.00;100525.89;179775;1269;43547;-55
2023/05/29 03:45:43;;;;;;;7.50;4.70;;;;;;;9.37;100.00;100527.04;179282;1268;44273;-55
2023/05/29 03:49:55;;;;;;;12.40;5.80;;;;;;;9.36;100.00;100531.46;179187;1268;58437;-55
2023/05/29 03:53:58;;;;;;;16.40;5.40;;;;;;;9.16;100.00;100532.79;179450;1268;45011;-56
2023/05/29 03:58:01;;;;;;;11.60;5.60;;;;;;;9.25;100.00;100533.66;179431;1269;43855;-56
2023/05/29 04:02:07;;;;;;;10.00;5.30;;;;;;;9.24;100.00;100538.01;179339;1269;44038;-56
2023/05/29 04:06:11;;;;;;;9.40;5.50;;;;;;;9.10;100.00;100542.00;179287;1268;43563;-56
2023/05/29 04:10:14;;;;;;;12.30;7.30;;;;;;;9.08;100.00;100546.98;179460;1268;58572;-55
2023/05/29 04:14:18;;;;;;;13.70;7.20;;;;;;;9.45;100.00;100545.52;179616;1268;43545;-56
2023/05/29 04:18:25;;;;;;;9.40;7.20;;;;;;;9.99;100.00;100550.29;179547;1269;44950;-56
2023/05/29 04:22:29;;;;;;;9.20;7.30;;;;;;;10.47;100.00;100550.27;179628;1268;43656;-56
2023/05/29 04:27:32;;;;;;;8.80;6.70;;;;;;;11.06;100.00;100553.66;179528;1268;43788;-56
2023/05/29 04:31:36;;;;;;;26.30;9.20;;;;;;;11.58;98.50;100556.20;179398;1270;59983;-55
2023/05/29 04:35:45;;;;;;;12.40;6.60;;;;;;;12.21;97.01;100560.88;179906;1265;44557;-53
2023/05/29 04:39:48;;;;;;;11.20;6.70;;;;;;;13.09;95.21;100555.88;179809;1267;43893;-55
2023/05/29 04:43:52;;;;;;;8.20;5.90;;;;;;;13.95;89.47;100554.41;179952;1265;43821;-56
2023/05/29 04:47:55;;;;;;;10.80;6.80;;;;;;;14.75;86.96;100557.89;179971;1265;43682;-56
2023/05/29 04:52:00;;;;;;;7.90;5.40;;;;;;;15.54;82.48;100561.88;179909;1265;58672;-56
2023/05/29 04:56:04;;;;;;;;;;;;;;;16.17;79.16;100551.86;179972;1265;43833;-56
2023/05/29 05:05:28;;;;;;;12.30;5.60;;;;;;;17.26;74.79;100549.33;179997;1265;43799;-56
2023/05/29 05:09:31;;;;;;;9.40;5.30;;;;;;;17.83;72.49;100550.23;180352;1266;45926;-56
2023/05/29 05:13:35;;;;;;;7.80;4.60;;;;;;;18.14;70.34;100546.91;180349;1266;57894;-56
2023/05/29 05:17:37;;;;;;;8.00;4.40;;;;;;;18.21;69.96;100548.48;180008;1264;43860;-59
2023/05/29 05:21:40;;;;;;;11.90;5.40;;;;;;;18.34;69.89;100550.99;180004;1266;44613;-56
2023/05/29 05:25:44;;;;;;;11.30;6.20;;;;;;;18.65;69.23;100549.69;179781;1264;44736;-56
2023/05/29 05:29:47;;;;;;;9.30;5.30;;;;;;;18.76;68.11;100551.07;179727;1265;43542;-56
2023/05/29 05:33:50;;;;;;;8.10;5.50;;;;;;;18.89;68.10;100553.76;179860;1265;58580;-56
2023/05/29 05:37:53;;;;;;;7.60;5.60;;;;;;;19.11;67.68;100557.36;180070;1266;43806;-56
2023/05/29 05:41:56;;;;;;;7.80;6.10;;;;;;;19.34;67.39;100559.24;180138;1265;43591;-57
2023/05/29 05:45:59;;;;;;;10.80;7.40;;;;;;;19.42;67.50;100562.47;180137;1265;45351;-56
2023/05/29 05:50:04;;;;;;;10.40;6.40;;;;;;;19.55;67.41;100562.13;180090;1265;43539;-57
2023/05/29 05:54:12;;;;;;;9.30;6.30;;;;;;;19.52;67.11;100569.09;179881;1268;57972;-57
2023/05/29 05:58:15;;;;;;;15.60;7.80;;;;;;;19.45;66.86;100570.20;180167;1264;44002;-57
2023/05/29 06:02:19;;;;;;;10.50;6.50;;;;;;;19.24;68.06;100570.36;180180;1264;43550;-57
2023/05/29 06:06:21;;;;;;;8.30;6.30;;;;;;;19.15;69.11;100573.76;180108;1265;43528;-57
2023/05/29 06:10:24;;;;;;;7.60;6.10;;;;;;;18.99;69.09;100571.83;180125;1264;44159;-58
2023/05/29 06:14:28;;;;;;;11.80;5.20;;;;;;;19.05;70.58;100572.65;180113;1265;59330;-57
2023/05/29 06:18:31;;;;;;;6.60;4.30;;;;;;;19.15;69.74;100570.96;180188;1264;43663;-57
2023/05/29 06:22:33;;;;;;;6.80;5.20;;;;;;;19.27;69.73;100572.16;180484;1264;43529;-57
2023/05/29 06:26:37;;;;;;;12.10;5.80;;;;;;;19.66;68.87;100572.67;180321;1266;44920;-58
2023/05/29 06:30:40;;;;;;;11.60;5.40;;;;;;;20.06;68.48;100567.89;180270;1264;43628;-57
2023/05/29 06:34:45;;;;;;;6.80;6.00;;;;;;;20.08;66.54;100573.85;180118;1264;58426;-57
2023/05/29 06:38:48;;;;;;;18.50;6.20;;;;;;;20.00;66.70;100576.84;180129;1267;46055;-57
2023/05/29 06:42:55;;;;;;;9.90;6.40;;;;;;;20.28;66.06;100577.23;180160;1264;43696;-57
2023/05/29 06:46:58;;;;;;;7.30;4.90;;;;;;;20.35;65.35;100580.52;180160;1266;43719;-56
2023/05/29 06:51:08;;;;;;;9.60;5.20;;;;;;;20.63;66.35;100580.25;180196;1264;45093;-57
2023/05/29 06:55:14;;;;;;;7.80;4.20;;;;;;;20.80;66.31;100578.80;180206;1267;58411;-57
2023/05/29 06:59:17;;;;;;;10.30;5.80;;;;;;;20.72;66.55;100583.54;180191;1263;43477;-57
2023/05/29 07:03:20;;;;;;;7.50;5.10;;;;;;;20.77;68.00;100582.61;180421;1262;46399;-55
2023/05/29 07:07:24;;;;;;;6.40;4.00;;;;;;;21.02;67.53;100582.31;180504;1260;46005;-57
2023/05/29 07:11:27;;;;;;;13.20;6.20;;;;;;;21.05;63.91;100584.66;180317;1260;44735;-57
2023/05/29 07:15:30;;;;;;;10.60;5.10;;;;;;;21.18;66.78;100586.48;180550;1259;60120;-57
2023/05/29 07:19:33;;;;;;;9.30;4.10;;;;;;;21.38;65.42;100585.27;180568;1259;46069;-57
2023/05/29 07:23:36;;;;;;;6.40;4.30;;;;;;;21.55;62.19;100591.01;180528;1261;45893;-57
2023/05/29 07:28:08;;;;;;;8.80;4.60;;;;;;;21.85;61.12;100592.41;180802;1259;44467;-57
2023/05/29 07:32:24;;;;;;;7.80;4.50;;;;;;;22.17;58.46;100594.34;180789;1259;43737;-57
2023/05/29 07:36:33;;;;;;;17.50;5.10;;;;;;;22.42;59.98;100593.35;180466;1259;58402;-57
2023/05/29 07:40:36;;;;;;;6.80;4.10;;;;;;;22.67;58.61;100592.66;180571;1260;43885;-57
2023/05/29 07:44:42;;;;;;;8.70;4.10;;;;;;;22.96;58.47;100589.41;180744;1259;44444;-58
2023/05/29 07:48:48;;;;;;;6.80;3.30;;;;;;;23.16;54.98;100586.08;180393;1259;43530;-58
2023/05/29 07:52:52;;;;;;;7.00;3.40;;;;;;;23.21;54.87;100586.16;180412;1259;43894;-57
2023/05/29 07:56:56;;;;;;;5.30;3.50;;;;;;;23.44;54.44;100589.02;180508;1259;59182;-58
2023/05/29 08:00:59;;;;;;;7.50;4.40;;;;;;;23.70;54.96;100593.71;180466;1259;44973;-57
2023/05/29 08:05:03;;;;;;;5.60;3.70;;;;;;;23.84;54.35;100600.64;180463;1259;43649;-58
2023/05/29 08:09:07;;;;;;;5.90;2.60;;;;;;;23.73;52.63;100602.20;180653;1259;43497;-57
2023/05/29 08:13:09;;;;;;;10.80;4.00;;;;;;;23.72;53.70;100604.67;180507;1260;43676;-57
2023/05/29 08:17:12;;;;;;;4.70;3.10;;;;;;;23.89;54.61;100600.60;180503;1259;58387;-57
2023/05/29 08:21:21;;;;;;;5.70;3.20;;;;;;;23.93;54.09;100606.77;180506;1259;44961;-57
2023/05/29 08:25:24;;;;;;;8.10;3.60;;;;;;;23.98;53.55;100602.98;180398;1259;43614;-57
2023/05/29 08:29:26;;;;;;;5.30;2.70;;;;;;;24.06;52.56;100597.92;180588;1260;43653;-58
2023/05/29 08:33:30;;;;;;;6.40;2.90;;;;;;;24.19;54.13;100595.81;180870;1260;43611;-58
2023/05/29 08:37:33;;;;;;;5.00;3.50;;;;;;;24.33;52.40;100595.98;180940;1256;57790;-58
2023/05/29 08:41:55;;;;;;;2.80;2.40;;;;;;;24.30;49.99;100594.14;180999;1257;44172;-57
2023/05/29 08:46:02;;;;;;;5.90;2.50;;;;;;;24.23;50.22;100594.81;180609;1256;44090;-57
2023/05/29 08:50:09;;;;;;;4.60;2.30;;;;;;;24.51;49.55;100594.13;180768;1256;44978;-58
2023/05/29 08:54:15;;;;;;;5.90;3.10;;;;;;;24.62;50.97;100591.73;180834;1256;44955;-57
2023/05/29 08:58:21;;;;;;;;;;;;;;;24.72;52.28;100584.98;180789;1255;57897;-58
2023/05/29 09:02:27;;;;;;;1.80;1.40;;;;;;;24.56;50.98;100583.74;180431;1254;82716;-89
2023/05/29 09:06:30;;;;;;;7.10;1.80;;;;;;;24.45;49.52;100584.59;179966;1254;46099;-90
2023/05/29 09:10:34;;;;;;;8.30;2.80;;;;;;;24.59;48.91;100580.86;179363;1258;46072;-91
2023/05/29 09:14:42;;;;;;;6.20;1.60;;;;;;;24.75;47.19;100581.63;179176;1254;46034;-89
2023/05/29 09:18:46;;;;;;;3.70;1.60;;;;;;;24.86;44.24;100583.52;179484;1254;60472;-90
2023/05/29 09:22:58;;;;;;;3.20;1.40;;;;;;;24.96;42.67;100583.81;179648;1253;46086;-90
2023/05/29 09:27:11;;;;;;;8.90;1.60;;;;;;;24.91;43.31;100588.14;179695;1253;46107;-90
2023/05/29 09:31:20;;;;;;;5.30;2.00;;;;;;;24.94;42.37;100583.94;179872;1258;44775;-90
2023/05/29 09:35:23;;;;;;;2.10;1.20;;;;;;;24.88;42.49;100580.90;179506;1254;44637;-91
2023/05/29 09:39:27;;;;;;;2.30;1.10;;;;;;;24.93;42.93;100584.90;179790;1254;57106;-91
2023/05/29 09:43:32;;;;;;;2.80;1.60;;;;;;;25.01;44.02;100585.50;179153;1253;46047;-90
2023/05/29 09:47:39;;;;;;;3.30;1.00;;;;;;;24.98;42.28;100585.14;179540;1254;46012;-90
2023/05/29 09:51:47;;;;;;;3.40;1.50;;;;;;;24.96;43.81;100580.67;179245;1253;46066;-90
2023/05/29 09:55:52;;;;;;;2.50;1.30;;;;;;;25.01;43.73;100582.41;179885;1254;45989;-90
2023/05/29 09:59:56;;;;;;;;;;;;;;;24.98;42.25;100583.14;179555;1253;58181;-90
2023/05/29 10:04:00;;;;;;;2.10;1.70;;;;;;;24.90;42.18;100580.78;180137;1253;45880;-89
2023/05/29 10:08:09;;;;;;;3.70;1.60;;;;;;;24.72;43.04;100582.77;179325;1255;45996;-89
2023/05/29 10:12:14;;;;;;;4.30;1.40;;;;;;;24.67;44.98;100577.70;179692;1254;46178;-90
2023/05/29 10:16:24;;;;;;;4.20;2.00;;;;;;;24.73;44.76;100575.35;179826;1258;44757;-90
2023/05/29 10:20:28;;;;;;;3.60;1.70;;;;;;;24.74;44.89;100580.58;179617;1253;57960;-90
2023/05/29 10:24:33;;;;;;;5.40;1.80;;;;;;;24.73;42.46;100574.82;179462;1254;45990;-90
2023/05/29 10:28:43;;;;;;;2.90;1.60;;;;;;;24.78;43.32;100569.55;179529;1253;45910;-90
2023/05/29 10:33:05;;;;;;;3.90;2.00;;;;;;;24.87;45.68;100569.14;179819;1254;46104;-89
2023/05/29 10:37:32;;;;;;;3.70;2.10;;;;;;;24.76;45.99;100570.25;179737;1253;46035;-90
2023/05/29 10:41:39;;;;;;;1.50;1.20;;;;;;;24.65;43.38;100569.55;180338;1254;59777;-90
2023/05/29 10:45:45;;;;;;;2.20;1.60;;;;;;;24.72;42.66;100565.98;179276;1254;45990;-90
2023/05/29 10:49:53;;;;;;;2.50;1.70;;;;;;;24.78;45.12;100569.00;179949;1253;44741;-90
2023/05/29 10:53:56;;;;;;;3.60;1.40;;;;;;;24.84;42.58;100565.55;180051;1254;45861;-90
2023/05/29 10:58:05;;;;;;;3.00;2.10;;;;;;;24.85;41.96;100567.35;179523;1257;44934;-90
2023/05/29 11:02:09;;;;;;;2.90;1.30;;;;;;;24.97;43.40;100568.11;180028;1254;59534;-90
2023/05/29 11:06:23;;;;;;;2.90;1.90;;;;;;;24.96;43.86;100559.50;179877;1256;45050;-85
2023/05/29 11:10:56;;;;;;;3.70;1.90;;;;;;;24.88;44.73;100555.50;178965;1255;44154;-85
2023/05/29 11:15:06;;;;;;;5.60;2.50;;;;;;;24.83;45.85;100551.71;178776;1255;45991;-88
2023/05/29 11:19:10;;;;;;;2.60;1.50;;;;;;;24.75;44.16;100544.98;178911;1256;44866;-86
2023/05/29 11:23:18;;;;;;;3.70;2.20;;;;;;;24.71;44.01;100539.87;178628;1255;59696;-86
2023/05/29 11:27:24;;;;;;;5.20;1.80;;;;;;;24.66;45.99;100540.67;178476;1257;45987;-86
2023/05/29 11:31:31;;;;;;;2.10;1.30;;;;;;;24.57;46.99;100545.89;178388;1255;46121;-87
2023/05/29 11:35:38;;;;;;;4.50;2.60;;;;;;;24.53;46.02;100552.14;179290;1259;46105;-87
2023/05/29 11:39:42;;;;;;;3.10;1.70;;;;;;;24.55;44.72;100549.86;178994;1256;44805;-87
2023/05/29 11:44:01;;;;;;;3.00;1.30;;;;;;;24.70;44.62;100551.68;178694;1256;59543;-86
2023/05/29 11:48:05;;;;;;;2.80;2.20;;;;;;;24.80;43.20;100547.15;178483;1255;46014;-87
2023/05/29 11:52:10;;;;;;;2.70;1.70;;;;;;;24.94;42.89;100544.96;178482;1256;46072;-86
2023/05/29 11:56:17;;;;;;;5.00;2.40;;;;;;;25.08;44.54;100550.69;179009;1256;44241;-87
2023/05/29 12:00:21;;;;;;;2.80;2.30;;;;;;;25.26;41.46;100540.98;178782;1256;46071;-87
2023/05/29 12:04:25;;;;;;;2.70;1.90;;;;;;;25.30;43.37;100533.75;179617;1254;60673;-86
2023/05/29 12:08:28;;;;;;;5.10;2.30;;;;;;;25.32;44.67;100530.94;178980;1254;46067;-87
2023/05/29 12:12:31;;;;;;;3.60;2.70;;;;;;;25.44;45.45;100528.27;179008;1253;46122;-87
2023/05/29 12:16:35;;;;;;;2.80;1.80;;;;;;;25.53;41.86;100526.64;178770;1253;46172;-88
2023/05/29 12:20:39;;;;;;;4.60;2.00;;;;;;;25.79;42.71;100528.40;178896;1254;46009;-87
2023/05/29 12:24:42;;;;;;;4.10;2.60;;;;;;;25.86;44.50;100526.71;179524;1253;59670;-86
2023/05/29 12:28:46;;;;;;;6.60;2.20;;;;;;;25.94;44.08;100518.27;179164;1253;45971;-86
2023/05/29 12:32:54;;;;;;;4.50;1.70;;;;;;;25.92;43.02;100517.16;179262;1253;46021;-86
2023/05/29 12:37:14;;;;;;;4.10;2.20;;;;;;;25.79;44.67;100512.30;179244;1253;46098;-87
2023/05/29 12:41:29;;;;;;;4.70;2.40;;;;;;;25.69;44.46;100515.48;179246;1253;45970;-87
2023/05/29 12:45:33;;;;;;;2.50;1.80;;;;;;;25.90;46.30;100508.15;178897;1254;60137;-87
2023/05/29 12:49:37;;;;;;;3.00;1.90;;;;;;;26.04;45.45;100511.92;178998;1253;46112;-87
2023/05/29 12:53:40;;;;;;;4.60;1.80;;;;;;;26.13;44.01;100508.11;178958;1253;46111;-88
2023/05/29 12:57:46;;;;;;;5.90;3.30;;;;;;;26.10;44.34;100501.97;179267;1253;46064;-87
2023/05/29 13:01:52;;;;;;;3.00;2.10;;;;;;;26.08;45.33;100497.94;179286;1255;44242;-88
2023/05/29 13:05:58;;;;;;;5.00;2.20;;;;;;;25.96;45.10;100497.49;178775;1253;58497;-88
2023/05/29 13:10:01;;;;;;;7.60;2.30;;;;;;;26.01;45.87;100492.79;178782;1253;46076;-87
2023/05/29 13:14:05;;;;;;;9.90;2.00;;;;;;;26.20;44.98;100486.14;178928;1254;46431;-87
2023/05/29 13:18:08;;;;;;;3.80;3.00;;;;;;;26.50;46.81;100488.35;179505;1253;46107;-86
2023/05/29 13:22:12;;;;;;;5.00;2.70;;;;;;;26.46;43.41;100482.48;179340;1253;46036;-86
2023/05/29 13:26:16;;;;;;;4.20;2.40;;;;;;;26.31;45.49;100480.16;179470;1253;58267;-87
2023/05/29 13:30:20;;;;;;;4.20;2.70;;;;;;;26.20;44.67;100476.57;180131;1256;44211;-88
2023/05/29 13:34:28;;;;;;;3.30;2.20;;;;;;;26.05;46.90;100475.05;179468;1255;46343;-89
2023/05/29 13:42:40;;;;;;;4.50;2.30;;;;;;;25.90;45.41;100469.71;160565;1258;44590;-57
2023/05/29 13:46:44;;;;;;;3.80;2.40;;;;;;;25.93;46.99;100464.11;180702;1259;58353;-58
2023/05/29 13:55:27;;;;;;;4.50;2.80;;;;;;;26.27;46.39;100461.20;179492;1264;43726;-87
2023/05/29 13:59:33;;;;;;;5.10;2.70;;;;;;;26.27;44.57;100451.80;180069;1264;44447;-89
2023/05/29 14:03:38;;;;;;;5.40;2.90;;;;;;;26.34;43.33;100451.36;178989;1263;45988;-89
2023/05/29 14:07:47;;;;;;;4.80;3.30;;;;;;;26.36;44.62;100452.77;179576;1267;58391;-89
2023/05/29 14:11:54;;;;;;;5.00;3.00;;;;;;;26.30;44.78;100448.67;178398;1264;1497589;-90
2023/05/29 14:15:59;;;;;;;8.80;3.70;;;;;;;26.35;44.58;100449.80;179438;1264;46036;-89
2023/05/29 14:20:11;;;;;;;6.80;2.80;;;;;;;26.19;46.18;100451.71;179281;1264;45311;-90
2023/05/29 14:24:17;;;;;;;3.70;2.80;;;;;;;26.03;47.27;100449.26;179380;1264;45644;-89
2023/05/29 14:28:25;;;;;;;4.30;3.40;;;;;;;25.86;45.96;100454.95;179452;1266;59278;-90
2023/05/29 14:32:31;;;;;;;4.40;3.30;;;;;;;25.64;47.38;100452.91;180029;1266;44860;-89
2023/05/29 14:36:36;;;;;;;6.30;2.60;;;;;;;25.59;47.92;100450.48;179368;1265;44345;-90
2023/05/29 14:40:40;;;;;;;10.40;3.40;;;;;;;25.60;48.73;100457.82;179763;1265;45911;-89
2023/05/29 14:44:45;;;;;;;5.10;3.50;;;;;;;25.50;49.97;100456.61;179423;1264;44598;-89
2023/05/29 14:48:49;;;;;;;3.70;3.20;;;;;;;25.42;50.54;100454.57;179758;1266;57957;-90
2023/05/29 14:52:54;;;;;;;9.50;4.00;;;;;;;25.29;51.45;100457.96;179524;1264;46130;-89
2023/05/29 14:56:59;;;;;;;6.30;4.10;;;;;;;24.95;51.64;100455.02;179628;1264;45058;-87
2023/05/29 15:01:02;;;;;;;5.20;3.50;;;;;;;24.80;53.02;100459.20;179348;1264;45993;-90
2023/05/29 15:05:07;;;;;;;3.50;2.90;;;;;;;24.78;55.50;100455.30;179540;1264;44549;-90
2023/05/29 15:09:11;;;;;;;4.70;3.00;;;;;;;24.83;51.26;100455.71;179441;1263;57997;-89
2023/05/29 15:13:17;;;;;;;5.70;2.90;;;;;;;24.96;50.70;100449.95;179781;1264;46117;-90
2023/05/29 15:17:22;;;;;;;5.40;3.00;;;;;;;24.96;49.21;100453.55;179949;1263;44768;-90
2023/05/29 15:21:26;;;;;;;3.80;2.90;;;;;;;24.82;49.68;100452.83;179529;1264;44157;-89
2023/05/29 15:25:30;;;;;;;5.50;2.90;;;;;;;24.65;51.51;100453.86;180154;1262;43859;-89
2023/05/29 15:29:35;;;;;;;5.60;4.20;;;;;;;24.40;51.97;100448.02;179724;1263;60456;-89
2023/05/29 15:33:40;;;;;;;3.20;2.80;;;;;;;24.30;53.81;100449.38;178916;1264;46014;-89
2023/05/29 15:37:44;;;;;;;3.00;2.70;;;;;;;24.32;56.14;100451.55;179454;1266;46146;-89
2023/05/29 15:41:48;;;;;;;4.20;3.00;;;;;;;24.29;54.02;100447.37;179196;1267;49343;-89
2023/05/29 15:45:52;;;;;;;3.40;2.90;;;;;;;24.10;55.56;100450.34;179632;1263;45962;-89
2023/05/29 15:49:59;;;;;;;4.60;3.10;;;;;;;23.94;57.13;100450.13;179167;1263;59537;-88
2023/05/29 15:54:04;;;;;;;3.70;2.60;;;;;;;23.94;55.71;100449.55;179273;1264;45691;-89
2023/05/29 15:58:08;;;;;;;3.70;2.70;;;;;;;23.95;54.79;100451.45;179603;1263;45168;-88
2023/05/29 16:02:11;;;;;;;4.90;2.50;;;;;;;23.93;53.90;100452.47;179119;1263;44176;-89
2023/05/29 16:06:15;;;;;;;6.00;3.40;;;;;;;23.83;52.76;100450.67;179063;1262;44060;-89
2023/05/29 16:10:19;;;;;;;4.90;2.60;;;;;;;23.84;54.72;100449.85;179248;1264;58285;-89
2023/05/29 16:14:23;;;;;;;4.70;3.30;;;;;;;23.94;56.75;100453.09;179492;1263;44057;-90
2023/05/29 16:18:27;;;;;;;4.30;3.90;;;;;;;23.98;54.54;100454.19;178978;1263;45921;-90
2023/05/29 16:22:31;;;;;;;7.00;2.60;;;;;;;23.91;52.97;100449.25;178864;1264;46098;-89
2023/05/29 16:26:45;;;;;;;5.40;3.50;;;;;;;23.78;54.07;100448.67;178833;1263;46571;-88
2023/05/29 16:30:48;;;;;;;3.10;2.40;;;;;;;23.61;52.68;100458.90;178742;1263;57084;-90
2023/05/29 16:34:54;;;;;;;8.20;3.30;;;;;;;23.44;53.23;100453.47;178833;1264;44097;-89
2023/05/29 16:38:57;;;;;;;7.70;3.70;;;;;;;23.36;55.25;100456.45;179654;1262;46129;-88
2023/05/29 16:43:01;;;;;;;4.50;3.20;;;;;;;23.21;55.13;100456.42;179272;1263;45950;-88
2023/05/29 16:47:06;;;;;;;3.90;3.30;;;;;;;23.06;55.83;100455.58;179136;1261;46075;-89
2023/05/29 16:51:10;;;;;;;6.50;3.40;;;;;;;22.94;56.62;100455.99;179108;1262;58825;-90
2023/05/29 16:55:14;;;;;;;4.00;3.50;;;;;;;22.79;56.96;100458.53;179156;1262;44516;-90
2023/05/29 16:59:21;;;;;;;13.70;4.90;;;;;;;22.70;57.86;100453.75;179301;1262;43701;-90
2023/05/29 17:03:25;;;;;;;4.00;2.70;;;;;;;22.59;58.13;100457.78;179276;1263;44623;-90
2023/05/29 17:07:29;;;;;;;5.10;3.10;;;;;;;22.52;57.83;100463.49;179088;1262;46027;-90
2023/05/29 17:11:33;;;;;;;6.30;3.50;;;;;;;22.44;58.17;100458.85;179492;1262;58274;-87
2023/05/29 17:15:37;;;;;;;3.90;3.20;;;;;;;22.41;58.65;100454.48;179237;1262;45097;-89
2023/05/29 17:19:41;;;;;;;8.20;3.90;;;;;;;22.35;59.52;100458.34;178896;1263;45943;-88
2023/05/29 17:23:45;;;;;;;12.10;4.00;;;;;;;22.22;59.34;100459.85;178662;1262;46138;-89
2023/05/29 17:27:49;;;;;;;4.20;2.80;;;;;;;22.06;58.20;100463.60;178837;1264;46116;-90
2023/05/29 17:31:52;;;;;;;4.90;3.30;;;;;;;21.85;58.75;100459.88;180660;1263;59785;-89
2023/05/29 17:35:56;;;;;;;5.80;3.40;;;;;;;21.65;60.02;100470.81;180142;1262;43803;-89
2023/05/29 17:40:00;;;;;;;7.00;3.40;;;;;;;21.44;61.17;100467.48;179026;1263;45084;-89
2023/05/29 17:44:04;;;;;;;5.10;3.00;;;;;;;21.19;61.09;100472.05;178886;1263;44047;-89
2023/05/29 17:48:08;;;;;;;3.60;2.70;;;;;;;21.01;61.80;100470.52;178542;1263;46245;-89
2023/05/29 17:52:11;;;;;;;4.80;3.70;;;;;;;20.84;63.53;100472.93;179174;1263;62947;-89
2023/05/29 17:56:15;;;;;;;5.80;3.00;;;;;;;20.64;64.34;100478.77;178375;1264;46116;-88
2023/05/29 18:00:19;;;;;;;10.10;3.70;;;;;;;20.46;64.16;100475.48;178961;1262;45925;-86
2023/05/29 18:04:22;;;;;;;12.20;3.80;;;;;;;20.34;64.40;100483.89;179198;1263;44171;-89
2023/05/29 18:08:26;;;;;;;8.30;3.40;;;;;;;20.26;65.06;100487.59;178576;1264;45520;-89
2023/05/29 18:12:29;;;;;;;7.90;4.10;;;;;;;20.18;65.63;100487.89;179457;1263;60423;-90
2023/05/29 18:16:47;;;;;;;4.10;3.70;;;;;;;20.10;66.00;100492.31;178767;1261;46103;-89
2023/05/29 18:20:51;;;;;;;4.70;4.10;;;;;;;20.05;65.72;100494.09;179054;1264;44344;-87
2023/05/29 18:24:55;;;;;;;5.60;3.70;;;;;;;19.99;65.73;100494.88;178206;1262;45970;-89
2023/05/29 18:28:59;;;;;;;11.20;4.10;;;;;;;19.92;66.31;100493.84;179416;1261;44759;-89
2023/05/29 18:33:04;;;;;;;5.90;3.80;;;;;;;19.82;65.98;100500.59;178703;1264;57978;-89
2023/05/29 18:37:08;;;;;;;6.30;3.50;;;;;;;19.75;66.09;100505.11;178545;1263;46099;-89
2023/05/29 18:41:11;;;;;;;11.00;3.70;;;;;;;19.64;66.52;100511.20;178173;1262;45474;-89
2023/05/29 18:45:15;;;;;;;6.90;3.70;;;;;;;19.50;66.74;100514.23;178738;1262;46132;-89
2023/05/29 18:49:19;;;;;;;5.60;4.60;;;;;;;19.37;67.04;100515.39;178354;1264;46133;-89
2023/05/29 18:53:23;;;;;;;4.80;4.00;;;;;;;19.27;66.44;100526.28;178887;1265;58749;-89
2023/05/29 18:57:27;;;;;;;6.80;4.30;;;;;;;19.17;66.28;100525.09;178897;1261;46006;-88
2023/05/29 19:01:31;;;;;;;8.70;4.80;;;;;;;19.06;66.00;100528.52;178516;1263;45971;-88
2023/05/29 19:05:36;;;;;;;6.40;4.20;;;;;;;18.95;66.31;100527.16;178933;1263;46148;-85
2023/05/29 19:09:41;;;;;;;7.70;4.40;;;;;;;18.79;66.58;100528.02;178451;1263;45942;-87